Time;durP1;ratioP1;P1;durP2;ratioP2;P2;SDS_P1;SDS_P2;PMS_P1;PMS_P2;Temp;Humidity;BMP_temperature;BMP_pressure;BME280_temperature;BME280_humidity;BME280_pressure;Samples;Min_cycle;Max_cycle;Signal;HPM_P1;HPM_P2
2023/01/09 00:01:11;;;;;;;12.90;11.00;;;;;;;3.25;100.00;94722.97;4952218;28;102021;-62
2023/01/09 00:03:38;;;;;;;13.23;10.97;;;;;;;3.16;100.00;94723.66;4952562;28;104814;-62
2023/01/09 00:06:05;;;;;;;13.67;10.27;;;;;;;3.05;100.00;94721.91;4950638;28;105636;-62
2023/01/09 00:08:32;;;;;;;12.10;10.80;;;;;;;3.06;100.00;94731.41;4969192;28;101822;-62
2023/01/09 00:10:59;;;;;;;15.37;12.83;;;;;;;3.10;100.00;94727.22;4951886;28;103897;-62
2023/01/09 00:13:29;;;;;;;13.63;11.17;;;;;;;3.10;100.00;94727.22;4956629;28;105007;-62
2023/01/09 00:15:55;;;;;;;13.17;11.37;;;;;;;2.98;100.00;94734.44;4953639;28;105074;-62
2023/01/09 00:18:22;;;;;;;13.13;11.03;;;;;;;3.07;100.00;94725.88;4954000;28;105238;-62
2023/01/09 00:20:49;;;;;;;12.97;10.93;;;;;;;3.08;100.00;94721.44;4953625;28;101805;-62
2023/01/09 00:23:16;;;;;;;14.67;11.23;;;;;;;3.15;100.00;94722.03;4953405;28;105127;-62
2023/01/09 00:25:43;;;;;;;13.60;10.93;;;;;;;3.18;100.00;94722.34;4953762;28;105153;-62
2023/01/09 00:28:10;;;;;;;14.40;11.60;;;;;;;3.17;100.00;94719.97;4953767;28;101828;-62
2023/01/09 00:30:38;;;;;;;13.53;10.80;;;;;;;3.17;100.00;94730.50;4955181;28;104906;-62
2023/01/09 00:33:06;;;;;;;13.10;10.57;;;;;;;3.15;100.00;94735.16;4955542;28;105164;-61
2023/01/09 00:35:33;;;;;;;13.53;10.63;;;;;;;3.15;100.00;94732.53;4959151;28;102001;-61
2023/01/09 00:38:02;;;;;;;11.27;10.07;;;;;;;3.13;100.00;94735.44;4955955;28;105041;-61
2023/01/09 00:40:29;;;;;;;12.53;10.87;;;;;;;3.13;100.00;94737.25;4955934;28;101895;-61
2023/01/09 00:42:56;;;;;;;12.80;10.67;;;;;;;3.08;100.00;94737.19;4955356;28;103657;-62
2023/01/09 00:45:27;;;;;;;14.93;10.83;;;;;;;3.11;100.00;94750.63;4955081;28;105018;-62
2023/01/09 00:48:02;;;;;;;12.67;10.47;;;;;;;3.07;100.00;94749.50;4955445;28;101802;-62
2023/01/09 00:50:31;;;;;;;14.00;10.90;;;;;;;3.13;100.00;94753.00;4973417;28;102601;-62
2023/01/09 00:53:02;;;;;;;11.23;10.03;;;;;;;3.07;100.00;94760.03;4954847;28;105027;-62
2023/01/09 00:55:31;;;;;;;14.10;11.63;;;;;;;3.04;100.00;94757.91;4955682;28;102097;-62
2023/01/09 00:57:58;;;;;;;14.70;11.80;;;;;;;3.00;100.00;94771.75;4958852;28;105151;-61
2023/01/09 01:00:25;;;;;;;14.37;11.60;;;;;;;2.97;100.00;94777.47;4955797;28;101913;-61
2023/01/09 01:02:51;;;;;;;14.20;10.90;;;;;;;2.95;100.00;94777.72;4955584;28;104894;-61
2023/01/09 01:08:10;;;;;;;13.00;10.80;;;;;;;2.97;100.00;94774.84;4956224;28;101804;-62
2023/01/09 01:10:37;;;;;;;13.00;11.20;;;;;;;3.05;100.00;94763.94;4973767;28;102936;-62
2023/01/09 01:13:04;;;;;;;12.17;10.40;;;;;;;3.11;100.00;94762.97;4962780;28;104269;-62
2023/01/09 01:15:31;;;;;;;12.50;10.20;;;;;;;3.16;100.00;94752.53;4956948;28;102135;-62
2023/01/09 01:17:58;;;;;;;12.03;9.83;;;;;;;3.22;100.00;94746.31;4972573;28;105632;-62
2023/01/09 01:20:28;;;;;;;12.00;9.80;;;;;;;3.31;100.00;94753.50;4959705;28;104705;-62
2023/01/09 01:22:54;;;;;;;12.30;9.93;;;;;;;3.27;100.00;94752.41;4957579;28;105271;-62
2023/01/09 01:25:21;;;;;;;11.33;9.47;;;;;;;3.29;100.00;94754.78;4956984;28;105090;-62
2023/01/09 01:27:48;;;;;;;10.60;9.47;;;;;;;3.28;100.00;94763.72;4957140;28;101864;-62
2023/01/09 01:30:16;;;;;;;11.40;10.10;;;;;;;3.35;100.00;94770.38;4957627;28;104961;-62
2023/01/09 01:32:43;;;;;;;12.33;10.40;;;;;;;3.34;100.00;94778.50;4971729;28;105202;-61
2023/01/09 01:35:11;;;;;;;13.10;10.17;;;;;;;3.36;100.00;94776.41;4956967;28;101757;-61
2023/01/09 01:37:40;;;;;;;11.93;9.93;;;;;;;3.20;100.00;94787.75;4973820;28;104918;-61
2023/01/09 01:40:11;;;;;;;10.97;9.40;;;;;;;3.18;100.00;94772.25;4975189;28;105894;-61
2023/01/09 01:42:46;;;;;;;12.03;9.57;;;;;;;3.22;100.00;94780.44;4978773;28;101978;-62
2023/01/09 01:45:15;;;;;;;13.37;10.13;;;;;;;3.27;100.00;94772.63;4957171;28;105532;-62
2023/01/09 01:47:50;;;;;;;12.87;11.40;;;;;;;3.34;100.00;94776.63;4955920;28;102038;-62
2023/01/09 01:50:24;;;;;;;10.90;9.80;;;;;;;3.10;100.00;94783.19;4956468;28;105104;-62
2023/01/09 01:53:00;;;;;;;12.07;10.30;;;;;;;3.17;100.00;94780.38;4974573;28;102466;-62
2023/01/09 01:55:27;;;;;;;10.63;9.30;;;;;;;3.21;100.00;94779.66;4973130;28;102154;-61
2023/01/09 01:58:01;;;;;;;12.10;9.63;;;;;;;3.33;100.00;94758.53;4975429;28;105590;-61
2023/01/09 02:00:31;;;;;;;10.60;9.50;;;;;;;3.38;100.00;94763.84;4958062;28;105091;-61
2023/01/09 02:03:00;;;;;;;12.03;9.93;;;;;;;3.36;100.00;94760.66;4978216;28;101854;-61
2023/01/09 02:05:28;;;;;;;13.10;10.37;;;;;;;3.38;100.00;94761.22;4956977;28;105352;-61
2023/01/09 02:07:56;;;;;;;11.10;9.27;;;;;;;3.45;100.00;94753.94;4956803;28;102218;-61
2023/01/09 02:10:24;;;;;;;11.23;9.80;;;;;;;3.50;100.00;94757.38;4957811;28;105086;-61
2023/01/09 02:12:52;;;;;;;11.13;9.80;;;;;;;3.58;100.00;94743.84;4956781;28;105572;-61
2023/01/09 02:15:20;;;;;;;10.70;9.60;;;;;;;3.45;100.00;94753.94;4975848;28;101983;-62
2023/01/09 02:18:16;;;;;;;12.03;10.17;;;;;;;3.41;100.00;94745.75;4958011;28;105304;-62
2023/01/09 02:20:52;;;;;;;11.37;10.17;;;;;;;3.42;100.00;94743.91;4947227;28;105061;-62
2023/01/09 02:24:01;;;;;;;12.57;9.73;;;;;;;3.44;100.00;94739.97;4972051;28;101850;-62
2023/01/09 02:27:00;;;;;;;12.97;10.63;;;;;;;3.44;100.00;94739.97;4976949;28;102562;-62
2023/01/09 02:30:10;;;;;;;11.30;9.83;;;;;;;3.26;100.00;94755.25;4950258;28;101872;-61
2023/01/09 02:32:53;;;;;;;11.37;10.17;;;;;;;3.18;100.00;94753.84;4949717;28;104078;-61
2023/01/09 02:35:49;;;;;;;12.43;10.90;;;;;;;3.20;100.00;94758.88;4954987;28;105421;-62
2023/01/09 02:38:28;;;;;;;11.70;10.10;;;;;;;3.14;100.00;94771.16;4974138;28;101774;-62
2023/01/09 02:41:02;;;;;;;12.87;9.90;;;;;;;3.13;100.00;94776.66;4973520;28;102756;-61
2023/01/09 02:43:32;;;;;;;13.70;10.70;;;;;;;3.11;100.00;94786.63;4974195;28;102488;-62
2023/01/09 02:45:59;;;;;;;12.17;10.03;;;;;;;3.13;100.00;94782.72;4973446;28;101792;-62
2023/01/09 02:48:30;;;;;;;12.27;9.87;;;;;;;3.20;100.00;94766.75;4971052;28;102631;-62
2023/01/09 02:51:07;;;;;;;12.57;10.10;;;;;;;3.34;100.00;94773.25;4960057;28;103880;-62
2023/01/09 02:53:53;;;;;;;11.37;9.40;;;;;;;3.39;100.00;94773.31;4973903;28;102284;-62
2023/01/09 02:56:45;;;;;;;10.70;9.33;;;;;;;3.45;100.00;94774.94;4974631;28;103322;-62
2023/01/09 02:59:26;;;;;;;10.67;9.37;;;;;;;3.46;100.00;94763.41;4955893;28;101926;-62
2023/01/09 03:02:08;;;;;;;10.07;8.93;;;;;;;3.51;100.00;94769.50;4956913;28;103593;-62
2023/01/09 03:04:50;;;;;;;10.97;9.17;;;;;;;3.57;100.00;94762.47;4956401;28;103929;-62
2023/01/09 03:07:25;;;;;;;11.50;9.70;;;;;;;3.67;100.00;94762.56;4956237;28;101976;-62
2023/01/09 03:09:56;;;;;;;11.13;9.87;;;;;;;3.66;100.00;94771.50;4956279;28;105134;-62
2023/01/09 03:12:29;;;;;;;10.87;9.50;;;;;;;3.56;100.00;94780.06;4956313;28;106489;-62
2023/01/09 03:15:00;;;;;;;12.57;9.57;;;;;;;3.44;100.00;94779.41;4959591;28;101997;-62
2023/01/09 03:17:32;;;;;;;10.80;9.70;;;;;;;3.56;100.00;94787.16;4972366;28;105437;-62
2023/01/09 03:20:02;;;;;;;11.00;9.90;;;;;;;3.56;100.00;94782.69;4973854;28;101936;-62
2023/01/09 03:22:29;;;;;;;14.70;10.87;;;;;;;3.40;100.00;94794.09;4972271;28;102180;-62
2023/01/09 03:24:58;;;;;;;13.63;10.63;;;;;;;3.40;100.00;94790.66;4956275;28;105424;-62
2023/01/09 03:27:24;;;;;;;12.13;10.07;;;;;;;3.41;100.00;94765.97;4973529;28;101786;-62
2023/01/09 03:29:53;;;;;;;12.50;10.07;;;;;;;3.50;100.00;94769.75;4954277;28;104927;-62
2023/01/09 03:32:21;;;;;;;11.77;10.33;;;;;;;3.55;100.00;94754.03;4954335;28;106341;-62
2023/01/09 03:34:49;;;;;;;10.87;9.77;;;;;;;3.56;100.00;94768.78;4954240;28;101920;-62
2023/01/09 03:37:17;;;;;;;12.73;10.90;;;;;;;3.38;100.00;94790.09;4976937;28;102345;-62
2023/01/09 03:39:44;;;;;;;12.33;10.20;;;;;;;3.30;100.00;94801.84;4955446;28;101972;-61
2023/01/09 03:42:11;;;;;;;13.50;11.20;;;;;;;3.23;100.00;94809.06;4956342;28;104950;-62
2023/01/09 03:44:38;;;;;;;11.83;10.30;;;;;;;3.26;100.00;94803.34;4955043;28;105952;-62
2023/01/09 03:47:05;;;;;;;13.13;10.60;;;;;;;3.37;100.00;94802.44;4955586;28;101988;-61
2023/01/09 03:49:33;;;;;;;11.33;10.00;;;;;;;3.41;100.00;94798.28;4955396;28;104350;-61
2023/01/09 03:52:01;;;;;;;11.57;10.17;;;;;;;3.44;100.00;94797.78;4954358;28;105301;-61
2023/01/09 03:54:29;;;;;;;11.60;10.37;;;;;;;3.46;100.00;94797.56;4955246;28;102089;-62
2023/01/09 03:56:56;;;;;;;13.87;10.17;;;;;;;3.46;100.00;94792.28;4955283;28;105331;-62
2023/01/09 03:59:24;;;;;;;10.40;9.20;;;;;;;3.47;100.00;94794.69;4958352;28;105299;-62
2023/01/09 04:01:52;;;;;;;11.27;10.07;;;;;;;3.49;100.00;94794.44;4972634;28;104799;-62
2023/01/09 04:04:20;;;;;;;12.37;10.40;;;;;;;3.51;100.00;94792.34;4954888;28;104340;-61
2023/01/09 04:06:48;;;;;;;11.53;10.33;;;;;;;3.48;100.00;94784.94;4955428;28;101916;-61
2023/01/09 04:09:14;;;;;;;11.20;10.00;;;;;;;3.48;100.00;94779.69;4972231;28;102487;-61
2023/01/09 04:11:43;;;;;;;11.60;10.40;;;;;;;3.46;100.00;94776.53;4952816;28;105407;-61
2023/01/09 04:14:09;;;;;;;10.70;9.60;;;;;;;3.48;100.00;94785.75;4954001;28;102022;-61
2023/01/09 04:16:36;;;;;;;11.23;10.03;;;;;;;3.47;100.00;94799.13;4955072;28;104081;-61
2023/01/09 04:19:03;;;;;;;12.27;10.33;;;;;;;3.46;100.00;94792.28;4957409;28;105373;-61
2023/01/09 04:21:30;;;;;;;11.07;9.87;;;;;;;3.45;100.00;94794.13;4972275;28;102914;-61
2023/01/09 04:23:57;;;;;;;11.57;9.50;;;;;;;3.46;100.00;94797.56;4954582;28;105195;-61
2023/01/09 04:26:24;;;;;;;14.77;12.33;;;;;;;3.39;100.00;94810.06;4971300;28;101892;-61
2023/01/09 04:28:52;;;;;;;15.33;12.33;;;;;;;3.32;100.00;94814.69;4953857;28;105988;-62
2023/01/09 04:31:20;;;;;;;11.27;9.80;;;;;;;3.41;100.00;94826.38;4953475;28;105655;-62
2023/01/09 04:33:47;;;;;;;13.27;10.13;;;;;;;3.47;100.00;94810.44;4970598;28;101874;-62
2023/01/09 04:36:14;;;;;;;10.87;9.33;;;;;;;3.49;100.00;94818.09;4954487;28;104924;-62
2023/01/09 04:38:41;;;;;;;11.53;10.13;;;;;;;3.52;100.00;94817.59;4954666;28;105166;-62
2023/01/09 04:41:07;;;;;;;11.13;10.00;;;;;;;3.43;100.00;94821.66;4957670;28;101871;-62
2023/01/09 04:43:36;;;;;;;12.17;10.20;;;;;;;3.57;100.00;94823.72;4953113;28;103736;-62
2023/01/09 04:46:05;;;;;;;11.77;10.57;;;;;;;3.37;100.00;94835.78;4953450;28;101807;-62
2023/01/09 04:48:32;;;;;;;11.80;10.47;;;;;;;3.41;100.00;94836.88;4952679;28;105483;-62
2023/01/09 04:50:59;;;;;;;11.60;10.00;;;;;;;3.40;100.00;94843.19;4952265;28;104011;-62
2023/01/09 04:53:27;;;;;;;11.50;9.97;;;;;;;3.44;100.00;94852.19;4951703;28;103065;-62
2023/01/09 04:55:54;;;;;;;11.20;10.00;;;;;;;3.56;100.00;94860.75;4952956;28;105424;-62
2023/01/09 04:58:21;;;;;;;14.47;10.93;;;;;;;3.62;100.00;94871.09;4953205;28;105719;-62
2023/01/09 05:00:47;;;;;;;10.60;9.13;;;;;;;3.71;100.00;94868.81;4954381;28;101861;-61
2023/01/09 05:03:16;;;;;;;12.03;9.87;;;;;;;3.68;100.00;94864.84;4956939;28;105300;-61
2023/01/09 05:05:44;;;;;;;11.83;10.63;;;;;;;3.70;100.00;94872.47;4955139;28;102109;-61
2023/01/09 05:08:11;;;;;;;13.70;11.43;;;;;;;3.77;100.00;94871.25;4954000;28;105461;-61
2023/01/09 05:10:38;;;;;;;13.10;11.70;;;;;;;3.77;100.00;94878.34;4952496;28;105072;-62
2023/01/09 05:13:05;;;;;;;14.73;12.20;;;;;;;3.67;100.00;94883.47;4952972;28;102010;-62
2023/01/09 05:15:32;;;;;;;13.50;11.87;;;;;;;3.66;100.00;94895.81;4953192;28;104849;-62
2023/01/09 05:17:59;;;;;;;13.13;11.30;;;;;;;3.69;100.00;94897.97;4953230;28;105484;-62
2023/01/09 05:20:27;;;;;;;14.47;12.97;;;;;;;3.78;100.00;94914.13;4972208;28;101864;-61
2023/01/09 05:22:55;;;;;;;14.57;12.93;;;;;;;3.74;100.00;94918.25;4970529;28;104823;-61
2023/01/09 05:25:22;;;;;;;13.43;12.00;;;;;;;3.66;100.00;94937.09;4958442;28;105382;-62
2023/01/09 05:27:49;;;;;;;13.10;10.93;;;;;;;3.51;100.00;94942.13;4954292;28;105714;-62
2023/01/09 05:30:16;;;;;;;12.03;10.67;;;;;;;3.53;100.00;94967.13;4953731;28;105536;-62
2023/01/09 05:32:43;;;;;;;12.10;10.87;;;;;;;3.64;100.00;94983.81;4954361;28;101900;-62
2023/01/09 05:35:10;;;;;;;11.73;10.47;;;;;;;3.72;100.00;94984.22;4954907;28;105273;-62
2023/01/09 05:37:38;;;;;;;12.10;10.77;;;;;;;3.77;100.00;94989.53;4953909;28;105079;-61
2023/01/09 05:40:08;;;;;;;10.60;9.50;;;;;;;3.95;100.00;95014.78;4954417;28;101892;-62
2023/01/09 05:42:35;;;;;;;8.40;7.07;;;;;;;4.25;100.00;95015.97;4954969;28;105240;-62
2023/01/09 05:45:01;;;;;;;5.30;4.70;;;;;;;5.16;100.00;95023.00;4954597;28;105708;-62
2023/01/09 05:47:28;;;;;;;5.33;4.07;;;;;;;5.35;100.00;95047.97;4958590;28;101868;-62
2023/01/09 05:49:56;;;;;;;3.80;2.63;;;;;;;5.56;100.00;95023.38;4955831;28;105039;-62
2023/01/09 05:52:24;;;;;;;3.90;2.13;;;;;;;5.61;100.00;95034.72;4954697;28;101995;-62
2023/01/09 05:54:52;;;;;;;2.87;0.90;;;;;;;5.81;100.00;95036.75;4955052;28;104988;-62
2023/01/09 05:57:19;;;;;;;0.50;0.50;;;;;;;5.87;100.00;95041.81;4954416;28;105013;-63
2023/01/09 05:59:46;;;;;;;0.57;0.57;;;;;;;5.85;100.00;95053.66;4971164;28;102224;-62
2023/01/09 06:02:13;;;;;;;0.77;0.50;;;;;;;5.83;100.00;95077.66;4971470;28;103825;-64
2023/01/09 06:04:42;;;;;;;1.03;0.40;;;;;;;5.91;100.00;95057.94;4953823;28;105130;-64
2023/01/09 06:07:09;;;;;;;1.00;0.50;;;;;;;5.86;100.00;95060.53;4954829;28;101860;-64
2023/01/09 06:09:36;;;;;;;0.50;0.50;;;;;;;5.83;100.00;95061.06;4957205;28;105177;-64
2023/01/09 06:12:05;;;;;;;0.50;0.50;;;;;;;5.88;100.00;95066.34;4954722;28;101923;-64
2023/01/09 06:14:31;;;;;;;0.53;0.50;;;;;;;5.97;100.00;95072.75;4972084;28;102864;-65
2023/01/09 06:16:58;;;;;;;0.60;0.50;;;;;;;5.95;100.00;95066.94;4954018;28;105670;-65
2023/01/09 06:19:25;;;;;;;0.40;0.40;;;;;;;6.03;100.00;95075.19;4971065;28;102119;-65
2023/01/09 06:21:52;;;;;;;1.40;0.50;;;;;;;6.03;100.00;95063.81;4971957;28;102600;-65
2023/01/09 06:24:19;;;;;;;0.43;0.43;;;;;;;6.10;100.00;95067.00;4953625;28;104412;-65
2023/01/09 06:26:46;;;;;;;1.60;0.40;;;;;;;6.12;100.00;95073.63;4971861;28;101948;-65
2023/01/09 06:29:15;;;;;;;0.70;0.70;;;;;;;6.12;100.00;95072.84;4956234;28;105636;-65
2023/01/09 06:31:42;;;;;;;1.67;1.20;;;;;;;6.17;100.00;95075.53;4954316;28;101919;-65
2023/01/09 06:34:08;;;;;;;2.13;1.80;;;;;;;6.24;100.00;95074.25;4950742;28;105422;-65
2023/01/09 06:36:35;;;;;;;1.13;0.70;;;;;;;6.27;100.00;95060.53;4950580;28;105244;-65
2023/01/09 06:39:02;;;;;;;1.13;0.43;;;;;;;6.25;100.00;95060.00;4951185;28;101852;-64
2023/01/09 06:41:29;;;;;;;2.37;0.80;;;;;;;6.26;100.00;95039.66;4950815;28;105463;-64
2023/01/09 06:43:56;;;;;;;0.60;0.43;;;;;;;6.29;100.00;95047.09;4950476;28;104977;-64
2023/01/09 06:46:25;;;;;;;0.60;0.53;;;;;;;6.23;100.00;95067.38;4950774;28;101892;-64
2023/01/09 06:48:52;;;;;;;0.60;0.60;;;;;;;6.22;100.00;95065.00;4951046;28;105448;-64
2023/01/09 06:51:20;;;;;;;0.80;0.53;;;;;;;6.17;100.00;95086.09;4953235;28;106092;-64
2023/01/09 06:53:49;;;;;;;1.03;0.40;;;;;;;6.12;100.00;95083.41;4950591;28;105275;-64
2023/01/09 06:56:16;;;;;;;0.70;0.50;;;;;;;6.10;100.00;95085.50;4949956;28;105337;-64
2023/01/09 06:58:44;;;;;;;0.60;0.50;;;;;;;6.10;100.00;95096.03;4950731;28;101862;-64
2023/01/09 07:01:12;;;;;;;0.40;0.40;;;;;;;6.23;100.00;95087.69;4950675;28;105834;-64
2023/01/09 07:03:41;;;;;;;0.47;0.47;;;;;;;6.20;100.00;95096.13;4949864;28;105658;-64
2023/01/09 07:06:08;;;;;;;1.20;0.50;;;;;;;6.18;100.00;95099.03;4950718;28;101823;-64
2023/01/09 07:08:36;;;;;;;0.73;0.73;;;;;;;6.21;100.00;95095.09;4951594;28;102660;-64
2023/01/09 07:11:03;;;;;;;0.73;0.73;;;;;;;6.27;100.00;95102.00;4949830;28;105363;-64
2023/01/09 07:13:31;;;;;;;0.50;0.50;;;;;;;6.37;100.00;95102.84;4955181;28;101836;-64
2023/01/09 07:15:58;;;;;;;0.73;0.70;;;;;;;6.41;100.00;95100.47;4949771;28;105439;-64
2023/01/09 07:18:26;;;;;;;0.93;0.93;;;;;;;6.44;100.00;95110.53;4950117;28;101899;-64
2023/01/09 07:20:55;;;;;;;0.60;0.60;;;;;;;6.36;100.00;95113.63;4950139;28;105488;-64
2023/01/09 07:23:24;;;;;;;0.60;0.60;;;;;;;6.45;100.00;95109.47;4950836;28;102788;-64
2023/01/09 07:25:51;;;;;;;0.50;0.50;;;;;;;6.46;100.00;95119.00;4950351;28;101834;-64
2023/01/09 07:28:19;;;;;;;4.43;2.90;;;;;;;6.57;100.00;95125.91;4950165;28;104139;-64
2023/01/09 07:30:46;;;;;;;7.67;4.70;;;;;;;6.43;100.00;95130.84;4949699;28;105784;-64
2023/01/09 07:33:14;;;;;;;1.10;1.00;;;;;;;6.56;100.00;95132.25;4949965;28;102047;-64
2023/01/09 07:35:41;;;;;;;1.20;1.00;;;;;;;6.50;100.00;95136.69;4952479;28;104191;-64
2023/01/09 07:38:10;;;;;;;1.40;1.30;;;;;;;6.45;100.00;95139.34;4949703;28;101915;-64
2023/01/09 07:40:38;;;;;;;0.80;0.80;;;;;;;6.36;100.00;95150.59;4949362;28;105319;-64
2023/01/09 07:43:05;;;;;;;0.60;0.60;;;;;;;6.41;100.00;95163.84;4949389;28;105485;-64
2023/01/09 07:45:34;;;;;;;0.60;0.60;;;;;;;6.38;100.00;95156.44;4949903;28;102253;-64
2023/01/09 07:48:02;;;;;;;0.87;0.87;;;;;;;6.36;100.00;95161.16;4950082;28;105165;-64
2023/01/09 07:50:29;;;;;;;0.50;0.50;;;;;;;6.33;100.00;95164.31;4949308;28;105778;-64
2023/01/09 07:52:57;;;;;;;2.17;1.20;;;;;;;6.29;100.00;95168.50;4949517;28;102191;-64
2023/01/09 07:55:26;;;;;;;1.43;1.33;;;;;;;6.28;100.00;95169.56;4949816;28;105451;-64
2023/01/09 07:57:53;;;;;;;1.73;1.63;;;;;;;6.26;100.00;95171.66;4952539;28;105483;-63
2023/01/09 08:00:21;;;;;;;0.90;0.90;;;;;;;6.30;100.00;95178.03;4949150;28;105262;-63
2023/01/09 08:02:53;;;;;;;0.87;0.87;;;;;;;6.31;100.00;95192.81;4948974;28;105453;-63
2023/01/09 08:05:21;;;;;;;1.43;1.10;;;;;;;6.33;100.00;95199.41;4949573;28;101881;-63
2023/01/09 08:07:50;;;;;;;1.00;1.00;;;;;;;6.43;100.00;95206.66;4949582;28;105941;-63
2023/01/09 08:10:18;;;;;;;0.40;0.40;;;;;;;6.48;100.00;95188.16;4948484;28;105629;-63
2023/01/09 08:12:53;;;;;;;0.60;0.60;;;;;;;6.44;100.00;95195.03;4966006;28;101911;-63
2023/01/09 08:15:21;;;;;;;0.60;0.60;;;;;;;6.43;100.00;95217.22;4949659;28;105515;-63
2023/01/09 08:17:48;;;;;;;0.50;0.50;;;;;;;6.41;100.00;95229.84;4948976;28;105556;-63
2023/01/09 08:20:18;;;;;;;0.40;0.40;;;;;;;6.40;100.00;95228.25;4969072;28;101845;-63
2023/01/09 08:22:49;;;;;;;0.63;0.63;;;;;;;6.37;100.00;95213.72;4948744;28;105785;-63
2023/01/09 08:25:17;;;;;;;1.00;1.00;;;;;;;6.46;100.00;95221.97;4949418;28;101919;-63
2023/01/09 08:27:44;;;;;;;0.80;0.50;;;;;;;6.53;100.00;95247.13;4949206;28;105342;-63
2023/01/09 08:30:15;;;;;;;0.40;0.40;;;;;;;6.57;100.00;95221.00;4965241;28;105329;-63
2023/01/09 08:32:42;;;;;;;2.10;0.57;;;;;;;6.47;100.00;95232.28;4949331;28;101856;-63
2023/01/09 08:35:10;;;;;;;0.50;0.50;;;;;;;6.43;100.00;95233.06;4949074;28;105334;-63
2023/01/09 08:37:38;;;;;;;0.60;0.60;;;;;;;6.46;100.00;95245.72;4948423;28;105572;-63
2023/01/09 08:40:06;;;;;;;0.97;0.80;;;;;;;6.44;100.00;95255.75;4952673;28;101888;-63
2023/01/09 08:48:09;;;;;;;0.73;0.50;;;;;;;6.54;100.00;95272.47;4949720;28;105340;-63
2023/01/09 08:50:37;;;;;;;1.63;1.53;;;;;;;6.58;100.00;95272.75;4948379;28;104220;-63
2023/01/09 08:53:04;;;;;;;1.37;1.03;;;;;;;6.57;100.00;95277.25;4950427;28;102015;-63
2023/01/09 08:55:31;;;;;;;3.93;2.67;;;;;;;6.59;100.00;95284.91;4952487;28;105531;-63
2023/01/09 08:57:59;;;;;;;0.90;0.90;;;;;;;6.62;100.00;95279.94;4952045;28;105642;-63
2023/01/09 09:00:28;;;;;;;2.77;2.07;;;;;;;6.61;100.00;95285.47;4953722;28;101856;-63
2023/01/09 09:02:57;;;;;;;1.97;1.43;;;;;;;6.62;100.00;95294.97;4955094;28;105356;-63
2023/01/09 09:05:26;;;;;;;10.30;6.37;;;;;;;6.60;100.00;95289.94;4952485;28;101917;-63
2023/01/09 09:07:54;;;;;;;7.83;5.03;;;;;;;6.60;100.00;95292.59;4952483;28;104098;-63
2023/01/09 09:10:23;;;;;;;0.90;0.73;;;;;;;6.64;100.00;95298.97;4950996;28;105946;-63
2023/01/09 09:12:52;;;;;;;7.17;5.93;;;;;;;6.64;100.00;95287.59;4952146;28;101934;-63
2023/01/09 09:15:22;;;;;;;1.87;0.60;;;;;;;6.64;100.00;95298.97;4952264;28;105062;-63
2023/01/09 09:17:54;;;;;;;2.73;2.00;;;;;;;6.62;100.00;95295.78;4967825;28;105556;-63
2023/01/09 09:20:23;;;;;;;1.13;0.63;;;;;;;6.62;100.00;95300.25;4952284;28;102081;-63
2023/01/09 09:22:51;;;;;;;1.27;0.60;;;;;;;6.59;100.00;95306.03;4951918;28;104391;-63
2023/01/09 09:25:19;;;;;;;0.50;0.50;;;;;;;6.58;100.00;95299.16;4954600;28;104357;-63
2023/01/09 09:27:47;;;;;;;1.03;0.40;;;;;;;6.56;100.00;95314.47;4951748;28;105317;-63
2023/01/09 09:30:17;;;;;;;0.60;0.60;;;;;;;6.58;100.00;95305.25;4951501;28;105734;-63
2023/01/09 09:32:45;;;;;;;0.70;0.70;;;;;;;6.61;100.00;95301.31;4952139;28;102052;-63
2023/01/09 09:35:14;;;;;;;0.67;0.60;;;;;;;6.57;100.00;95300.22;4951270;28;105557;-63
2023/01/09 09:37:42;;;;;;;1.00;1.00;;;;;;;6.54;100.00;95312.09;4952256;28;102908;-63
2023/01/09 09:40:20;;;;;;;1.50;1.40;;;;;;;6.55;100.00;95302.34;4951954;28;102064;-63
2023/01/09 09:46:12;;;;;;;1.17;0.70;;;;;;;6.50;100.00;95304.94;4951049;28;105410;-63
2023/01/09 09:48:48;;;;;;;5.37;4.53;;;;;;;6.50;100.00;95312.84;4955057;28;101883;-63
2023/01/09 09:51:36;;;;;;;1.67;1.40;;;;;;;6.45;100.00;95310.16;4951013;28;105737;-63
2023/01/09 09:54:08;;;;;;;2.07;1.10;;;;;;;6.44;100.00;95304.06;4967585;28;101782;-63
2023/01/09 09:56:41;;;;;;;0.90;0.80;;;;;;;6.44;100.00;95301.44;4951461;28;105212;-63
2023/01/09 09:59:15;;;;;;;1.77;0.67;;;;;;;6.42;100.00;95308.81;4950842;28;103151;-63
2023/01/09 10:01:48;;;;;;;1.67;0.70;;;;;;;6.44;100.00;95309.34;4951148;28;101896;-63
2023/01/09 10:04:19;;;;;;;1.43;1.33;;;;;;;6.47;100.00;95302.78;4951109;28;105733;-63
2023/01/09 10:06:53;;;;;;;3.30;2.40;;;;;;;6.50;100.00;95291.72;4951051;28;104636;-63
2023/01/09 10:09:32;;;;;;;2.27;2.00;;;;;;;6.51;100.00;95277.47;4951190;28;101755;-63
2023/01/09 10:12:04;;;;;;;1.30;1.20;;;;;;;6.57;100.00;95271.97;4954298;28;105453;-63
2023/01/09 10:14:32;;;;;;;3.63;1.83;;;;;;;6.63;100.00;95262.22;4951366;28;101722;-63
2023/01/09 10:17:17;;;;;;;2.30;1.50;;;;;;;6.64;100.00;95264.63;4951212;28;104165;-63
2023/01/09 10:19:59;;;;;;;1.90;1.20;;;;;;;6.57;100.00;95266.69;4950601;28;106222;-63
2023/01/09 10:22:42;;;;;;;1.90;1.37;;;;;;;6.61;100.00;95274.91;4951172;28;102516;-63
2023/01/09 10:25:22;;;;;;;0.70;0.50;;;;;;;6.65;100.00;95279.44;4951171;28;102962;-63
2023/01/09 10:28:07;;;;;;;1.73;1.20;;;;;;;6.71;100.00;95270.50;4950693;28;105413;-63
2023/01/09 10:30:42;;;;;;;0.70;0.70;;;;;;;6.74;100.00;95282.41;4950964;28;101738;-63
2023/01/09 10:33:34;;;;;;;1.33;0.90;;;;;;;6.69;100.00;95269.97;4950997;28;105204;-63
2023/01/09 10:36:24;;;;;;;1.83;1.30;;;;;;;6.71;100.00;95267.06;4953266;28;101937;-63
2023/01/09 10:38:56;;;;;;;1.20;0.80;;;;;;;6.72;100.00;95268.66;4950656;28;105451;-63
2023/01/09 10:41:29;;;;;;;2.13;1.00;;;;;;;6.72;100.00;95273.94;4950392;28;105931;-63
2023/01/09 10:44:02;;;;;;;0.90;0.80;;;;;;;6.78;100.00;95279.00;4950881;28;101807;-63
2023/01/09 10:46:36;;;;;;;1.87;0.80;;;;;;;6.86;100.00;95280.38;4950747;28;104139;-63
2023/01/09 10:49:04;;;;;;;1.00;1.00;;;;;;;6.87;100.00;95284.63;4950098;28;105618;-63
2023/01/09 10:51:39;;;;;;;0.80;0.80;;;;;;;6.88;100.00;95283.56;4950724;28;102748;-63
2023/01/09 10:54:17;;;;;;;0.60;0.60;;;;;;;6.89;100.00;95283.31;4950853;28;105569;-63
2023/01/09 10:56:50;;;;;;;3.57;2.23;;;;;;;6.91;100.00;95277.75;4953550;28;105327;-63
2023/01/09 10:59:17;;;;;;;4.07;1.53;;;;;;;6.96;100.00;95283.06;4950875;28;103747;-63
2023/01/09 11:01:45;;;;;;;4.90;2.97;;;;;;;6.96;100.00;95280.44;4949788;28;105997;-63
2023/01/09 11:04:23;;;;;;;2.53;1.40;;;;;;;6.95;100.00;95278.84;4950654;28;102095;-63
2023/01/09 11:06:56;;;;;;;2.17;1.00;;;;;;;6.96;100.00;95275.97;4950464;28;105537;-63
2023/01/09 11:09:25;;;;;;;2.57;1.60;;;;;;;6.97;100.00;95271.44;4950053;28;105732;-63
2023/01/09 11:11:53;;;;;;;1.20;1.00;;;;;;;6.95;100.00;95268.28;4950361;28;102073;-63
2023/01/09 11:14:26;;;;;;;4.27;2.47;;;;;;;6.98;100.00;95271.22;4950680;28;105316;-63
2023/01/09 11:16:56;;;;;;;1.40;1.00;;;;;;;6.98;100.00;95265.91;4949021;28;105969;-63
2023/01/09 11:19:25;;;;;;;7.23;3.27;;;;;;;7.08;100.00;95273.09;4953800;28;101875;-63
2023/01/09 11:22:08;;;;;;;3.67;1.70;;;;;;;7.08;100.00;95267.81;4949325;28;103805;-63
2023/01/09 11:24:36;;;;;;;2.97;1.83;;;;;;;7.14;100.00;95264.19;4950226;28;101997;-63
2023/01/09 11:27:26;;;;;;;0.83;0.70;;;;;;;7.16;100.00;95267.34;4949951;28;105488;-63
2023/01/09 11:30:15;;;;;;;6.53;3.83;;;;;;;7.21;100.00;95262.09;4945559;28;105733;-63
2023/01/09 11:32:45;;;;;;;5.57;2.93;;;;;;;7.27;100.00;95271.66;4950272;28;101821;-63
2023/01/09 11:35:19;;;;;;;2.87;1.37;;;;;;;7.27;100.00;95276.94;4946446;28;105521;-63
2023/01/09 11:37:49;;;;;;;1.27;0.70;;;;;;;7.30;100.00;95281.72;4946467;28;104604;-63
2023/01/09 11:40:21;;;;;;;2.33;0.80;;;;;;;7.28;100.00;95283.81;4930516;28;101912;-63
2023/01/09 11:43:14;;;;;;;3.17;0.90;;;;;;;7.28;100.00;95279.34;4934994;28;102527;-63
2023/01/09 11:45:50;;;;;;;1.60;0.67;;;;;;;7.28;100.00;95284.63;4927801;28;102130;-63